Portada
METAR-TAF:

METAR-TAF

Aeroports :

Boscombe Down, Anglaterra

latitud: 51-10N, longitud: 001-45W, altitud: 124 m

Observació

L'informe es va fer fa 20 minuts, a les 12:50 UTC
Vent 13 kt del Sud-Oest
Temperatura 21°C
Humitat 56%
Pressió 1021 hPa
Visibilitat 10 km o més

METAR: EGDM 211250Z AUTO 23013KT 9999 SCT035/// BKN043/// 21/12 Q1021

Hora: 14:10 (13:10 UTC)


TAF: manca

Observacions i pronòstics meteorològics de més de 4000 aeroports (METAR i TAF).

Les estacions disponibles són els punts grocs i vermells al mapa.

Posi el ratolí al punt desitjat per veure el nom de l'estació.

Feu clic per veure les observacions i els pronòstics meteorològics.

Per canviar el mapa: feu clic els botons verds amb una creu de color negre per apropar; al botó verd amb un guió per allunyar la imatge; o en les fletxes verdes per a mapes adjacents.


METAR-TAF: